Time;durP1;ratioP1;P1;durP2;ratioP2;P2;SDS_P1;SDS_P2;PMS_P1;PMS_P2;Temp;Humidity;BMP_temperature;BMP_pressure;BME280_temperature;BME280_humidity;BME280_pressure;Samples;Min_cycle;Max_cycle;Signal;HPM_P1;HPM_P2
2022/06/05 00:02:44;;;;;;;4.32;2.40;;;19.40;99.90;;;;;;4818331;29;20045;-88
2022/06/05 00:05:43;;;;;;;4.47;2.10;;;19.70;99.90;;;;;;4821444;29;20031;-89
2022/06/05 00:08:23;;;;;;;5.47;2.28;;;19.40;99.90;;;;;;4828182;29;20018;-88
2022/06/05 00:11:03;;;;;;;4.45;2.17;;;19.40;99.90;;;;;;4818101;29;20098;-88
2022/06/05 00:13:49;;;;;;;4.20;2.22;;;19.30;99.90;;;;;;4824298;29;20082;-88
2022/06/05 00:16:30;;;;;;;5.90;2.20;;;19.40;99.90;;;;;;4813865;29;20046;-88
2022/06/05 00:18:55;;;;;;;4.70;2.50;;;19.30;99.90;;;;;;4815463;29;20054;-88
2022/06/05 00:21:29;;;;;;;4.88;2.30;;;19.30;99.90;;;;;;4809820;29;20472;-89
2022/06/05 00:24:06;;;;;;;3.97;2.50;;;19.30;99.90;;;;;;4819237;29;20050;-88
2022/06/05 00:26:54;;;;;;;4.07;2.50;;;19.30;99.90;;;;;;4818302;29;20045;-88
2022/06/05 00:29:29;;;;;;;5.78;3.08;;;19.30;99.90;;;;;;4829548;29;20065;-89
2022/06/05 00:32:16;;;;;;;4.18;2.30;;;19.30;99.90;;;;;;4818617;29;20062;-88
2022/06/05 00:34:42;;;;;;;3.80;2.15;;;19.30;99.90;;;;;;4821940;29;20030;-89
2022/06/05 00:37:28;;;;;;;3.67;2.33;;;19.30;99.90;;;;;;4820910;29;20030;-89
2022/06/05 00:40:20;;;;;;;4.18;2.33;;;19.30;99.90;;;;;;4821230;29;20114;-88
2022/06/05 00:42:48;;;;;;;8.18;2.72;;;19.30;99.90;;;;;;4820621;29;20493;-88
2022/06/05 00:45:14;;;;;;;3.97;2.33;;;19.20;99.90;;;;;;4815824;29;20035;-88
2022/06/05 00:47:43;;;;;;;6.53;2.95;;;19.20;99.90;;;;;;4818585;29;20034;-89
2022/06/05 00:50:22;;;;;;;4.30;2.55;;;19.20;99.90;;;;;;4827925;29;20064;-88
2022/06/05 00:52:55;;;;;;;4.30;2.42;;;19.10;99.90;;;;;;4821453;29;20443;-89
2022/06/05 00:55:35;;;;;;;4.80;2.33;;;19.20;99.90;;;;;;4808997;29;20433;-89
2022/06/05 00:58:00;;;;;;;3.50;2.17;;;19.20;99.90;;;;;;4823293;29;20026;-88
2022/06/05 01:00:35;;;;;;;3.95;2.38;;;19.10;99.90;;;;;;4817411;29;20034;-89
2022/06/05 01:03:19;;;;;;;4.20;2.17;;;19.00;99.90;;;;;;4823761;29;20028;-88
2022/06/05 01:05:53;;;;;;;6.97;3.00;;;19.10;99.90;;;;;;4825471;29;20041;-87
2022/06/05 01:08:26;;;;;;;5.47;3.00;;;19.00;99.90;;;;;;4822431;29;20045;-89
2022/06/05 01:11:10;;;;;;;3.95;2.55;;;19.00;99.90;;;;;;4824033;29;20035;-88
2022/06/05 01:13:47;;;;;;;4.50;2.50;;;19.00;99.90;;;;;;4824989;29;20030;-88
2022/06/05 01:16:22;;;;;;;5.32;2.78;;;19.00;99.90;;;;;;4828191;29;20045;-88
2022/06/05 01:19:09;;;;;;;5.28;2.72;;;19.00;99.90;;;;;;4813814;29;20133;-88
2022/06/05 01:21:59;;;;;;;5.18;3.00;;;19.00;99.90;;;;;;4820248;29;20077;-88
2022/06/05 01:24:54;;;;;;;4.97;2.70;;;18.90;99.90;;;;;;4823208;29;20023;-88
2022/06/05 01:27:31;;;;;;;4.72;2.72;;;19.00;99.90;;;;;;4826955;29;20512;-88
2022/06/05 01:30:10;;;;;;;4.00;2.55;;;19.50;99.90;;;;;;4819664;29;20117;-88
2022/06/05 01:32:53;;;;;;;5.30;2.90;;;18.90;99.90;;;;;;4814821;29;20056;-88
2022/06/05 01:35:53;;;;;;;7.13;2.40;;;18.90;99.90;;;;;;4812038;29;20062;-88
2022/06/05 01:38:34;;;;;;;4.45;2.47;;;18.90;99.90;;;;;;4820640;29;20038;-88
2022/06/05 01:41:09;;;;;;;4.15;2.40;;;18.90;99.90;;;;;;4823005;29;20022;-88
2022/06/05 01:43:39;;;;;;;4.85;2.90;;;19.00;99.90;;;;;;4826577;29;20030;-88
2022/06/05 01:46:23;;;;;;;4.22;2.58;;;19.00;99.90;;;;;;4813143;29;20460;-88
2022/06/05 01:49:21;;;;;;;4.28;2.75;;;19.00;99.90;;;;;;4819684;29;20023;-87
2022/06/05 01:51:56;;;;;;;5.07;3.03;;;19.10;99.90;;;;;;4821874;29;20487;-88
2022/06/05 01:54:39;;;;;;;5.50;3.25;;;19.10;99.90;;;;;;4818062;29;20059;-87
2022/06/05 01:57:06;;;;;;;6.50;3.22;;;19.10;99.90;;;;;;4816738;29;20060;-87
2022/06/05 01:59:37;;;;;;;4.90;2.88;;;19.10;99.90;;;;;;4822110;29;20038;-89
2022/06/05 02:02:05;;;;;;;5.05;2.83;;;19.10;99.90;;;;;;4813734;29;20083;-87
2022/06/05 02:04:37;;;;;;;4.53;2.60;;;19.10;99.90;;;;;;4825439;29;20031;-88
2022/06/05 02:07:36;;;;;;;4.20;2.70;;;19.10;99.90;;;;;;4820495;29;20030;-88
2022/06/05 02:10:13;;;;;;;5.18;2.85;;;19.00;99.90;;;;;;4828916;29;20047;-88
2022/06/05 02:12:39;;;;;;;4.97;2.85;;;19.00;99.90;;;;;;4823968;29;20121;-89
2022/06/05 02:15:06;;;;;;;4.22;2.40;;;18.90;99.90;;;;;;4825281;29;20034;-86
2022/06/05 02:17:32;;;;;;;4.47;2.55;;;18.90;99.90;;;;;;4818790;29;20131;-88
2022/06/05 02:19:59;;;;;;;4.80;2.60;;;18.80;99.90;;;;;;4818983;29;20178;-88
2022/06/05 02:22:29;;;;;;;4.65;2.53;;;18.70;99.90;;;;;;4823572;29;20030;-88
2022/06/05 02:24:55;;;;;;;5.97;2.60;;;18.70;99.90;;;;;;4815156;29;20046;-88
2022/06/05 02:27:24;;;;;;;4.90;2.33;;;18.60;99.90;;;;;;4822521;29;20070;-88
2022/06/05 02:29:54;;;;;;;4.68;2.47;;;18.60;99.90;;;;;;4825076;29;20105;-88
2022/06/05 02:32:47;;;;;;;4.97;2.67;;;18.50;99.90;;;;;;4824425;29;20029;-87
2022/06/05 02:35:52;;;;;;;5.13;2.95;;;18.50;99.90;;;;;;4821093;29;20404;-88
2022/06/05 02:38:23;;;;;;;4.03;2.40;;;18.40;99.90;;;;;;4827373;29;20034;-87
2022/06/05 02:41:07;;;;;;;;;;;18.40;99.90;;;;;;4829010;29;20113;-88
2022/06/05 02:44:28;;;;;;;3.83;2.65;;;18.40;99.90;;;;;;4826141;29;19909;-88
2022/06/05 02:46:57;;;;;;;5.65;3.20;;;18.40;99.90;;;;;;4819981;29;20031;-88
2022/06/05 02:49:42;;;;;;;5.15;3.00;;;18.30;99.90;;;;;;4824931;29;20034;-88
2022/06/05 02:52:09;;;;;;;4.47;2.88;;;18.20;99.90;;;;;;4828175;29;20045;-88
2022/06/05 02:54:41;;;;;;;8.98;3.20;;;18.20;99.90;;;;;;4834058;29;20038;-88
2022/06/05 02:57:07;;;;;;;5.45;3.17;;;18.10;99.90;;;;;;4839778;29;20022;-88
2022/06/05 02:59:32;;;;;;;5.05;3.13;;;18.10;99.90;;;;;;4842901;29;20501;-87
2022/06/05 03:04:42;;;;;;;5.07;3.15;;;18.10;99.90;;;;;;4837918;29;20129;-87
2022/06/05 03:07:08;;;;;;;5.05;3.08;;;18.20;99.90;;;;;;4844705;29;20034;-86
2022/06/05 03:09:35;;;;;;;6.28;2.97;;;18.20;99.90;;;;;;4846283;29;20030;-87
2022/06/05 03:12:01;;;;;;;4.38;2.53;;;18.10;99.90;;;;;;4836680;29;20034;-88
2022/06/05 03:14:28;;;;;;;5.05;2.90;;;18.20;99.90;;;;;;4824749;29;20054;-88
2022/06/05 03:16:54;;;;;;;4.32;2.63;;;18.20;99.90;;;;;;4824382;29;20026;-88
2022/06/05 03:19:19;;;;;;;4.63;2.83;;;18.20;99.90;;;;;;4818743;29;20035;-88
2022/06/05 03:21:45;;;;;;;6.30;3.20;;;18.10;99.90;;;;;;4823546;29;20038;-89
2022/06/05 03:24:11;;;;;;;5.18;2.78;;;18.10;99.90;;;;;;4825494;29;20047;-87
2022/06/05 03:26:41;;;;;;;6.45;3.28;;;18.10;99.90;;;;;;4825546;29;20057;-88
2022/06/05 03:29:07;;;;;;;4.63;2.85;;;18.20;99.90;;;;;;4832257;29;20031;-88
2022/06/05 03:31:34;;;;;;;4.78;2.40;;;18.20;99.90;;;;;;4839836;29;20041;-88
2022/06/05 03:34:01;;;;;;;5.18;2.75;;;18.20;99.90;;;;;;4844230;29;20030;-88
2022/06/05 03:36:26;;;;;;;7.13;2.80;;;18.20;99.90;;;;;;4830117;29;20090;-89
2022/06/05 03:38:52;;;;;;;4.78;2.70;;;18.20;99.90;;;;;;4821053;29;20062;-89
2022/06/05 03:41:18;;;;;;;4.57;2.88;;;18.30;99.90;;;;;;4824079;29;20372;-88
2022/06/05 03:43:45;;;;;;;4.97;3.05;;;18.30;99.90;;;;;;4825228;29;20038;-88
2022/06/05 03:46:12;;;;;;;6.05;2.95;;;18.40;99.90;;;;;;4823622;29;20034;-88
2022/06/05 03:48:39;;;;;;;4.78;2.75;;;18.30;99.90;;;;;;4820911;29;20034;-88
2022/06/05 03:51:17;;;;;;;4.28;2.63;;;18.30;99.90;;;;;;4825442;29;20030;-88
2022/06/05 03:53:43;;;;;;;4.57;2.65;;;18.40;99.90;;;;;;4816932;29;20039;-88
2022/06/05 03:56:10;;;;;;;4.55;2.70;;;18.40;99.90;;;;;;4825653;29;20038;-89
2022/06/05 03:58:37;;;;;;;6.18;2.80;;;18.40;99.90;;;;;;4824777;29;20110;-88
2022/06/05 04:01:03;;;;;;;4.57;2.63;;;18.40;99.90;;;;;;4819635;29;20034;-88
2022/06/05 04:03:31;;;;;;;4.63;2.70;;;18.40;99.90;;;;;;4825406;29;20488;-88
2022/06/05 04:05:57;;;;;;;4.65;2.88;;;18.50;99.90;;;;;;4822953;29;20055;-88
2022/06/05 04:08:23;;;;;;;4.38;2.50;;;18.40;99.90;;;;;;4821152;29;20109;-88
2022/06/05 04:10:48;;;;;;;4.45;2.45;;;18.40;99.90;;;;;;4823924;29;20088;-88
2022/06/05 04:13:14;;;;;;;4.47;2.53;;;18.50;99.90;;;;;;4825438;29;20110;-87
2022/06/05 04:15:41;;;;;;;4.65;2.58;;;18.40;99.90;;;;;;4839814;29;20026;-88
2022/06/05 04:18:07;;;;;;;7.82;2.97;;;18.30;99.90;;;;;;4835589;29;20061;-87
2022/06/05 04:20:34;;;;;;;7.60;3.58;;;18.30;99.90;;;;;;4825591;29;20030;-88
2022/06/05 04:23:00;;;;;;;4.93;2.65;;;18.30;99.90;;;;;;4824418;29;20504;-89
2022/06/05 04:25:26;;;;;;;5.95;3.03;;;18.30;99.90;;;;;;4823133;29;20372;-88
2022/06/05 04:27:52;;;;;;;5.18;2.75;;;18.30;99.90;;;;;;4826788;29;20105;-88
2022/06/05 04:30:18;;;;;;;5.32;2.95;;;18.20;99.90;;;;;;4825814;29;20528;-88
2022/06/05 04:32:43;;;;;;;4.25;2.60;;;18.20;99.90;;;;;;4823403;29;20110;-88
2022/06/05 04:35:10;;;;;;;5.65;3.05;;;18.20;99.90;;;;;;4820707;29;20060;-87
2022/06/05 04:37:36;;;;;;;5.55;2.83;;;18.20;99.90;;;;;;4814997;29;20821;-89
2022/06/05 04:40:03;;;;;;;4.93;2.88;;;18.20;99.90;;;;;;4821378;29;20499;-89
2022/06/05 04:42:30;;;;;;;5.05;2.90;;;18.30;99.90;;;;;;4823477;29;20027;-89
2022/06/05 04:44:56;;;;;;;4.68;3.00;;;18.20;99.90;;;;;;4823754;29;20105;-89
2022/06/05 04:47:22;;;;;;;6.47;3.33;;;18.10;99.90;;;;;;4820633;29;20026;-87
2022/06/05 04:49:47;;;;;;;5.32;3.20;;;18.00;99.90;;;;;;4822186;29;20527;-88
2022/06/05 04:52:13;;;;;;;7.50;3.20;;;18.00;99.90;;;;;;4813366;29;20114;-88
2022/06/05 04:54:38;;;;;;;5.60;3.45;;;18.00;99.90;;;;;;4820080;29;20038;-88
2022/06/05 04:57:04;;;;;;;7.13;3.38;;;17.90;99.90;;;;;;4822601;29;20034;-88
2022/06/05 04:59:30;;;;;;;5.25;3.28;;;17.90;99.90;;;;;;4821146;29;20124;-88
2022/06/05 05:01:56;;;;;;;6.47;3.35;;;17.90;99.90;;;;;;4818719;29;20755;-87
2022/06/05 05:04:21;;;;;;;5.53;3.50;;;17.80;99.90;;;;;;4820457;29;20476;-87
2022/06/05 05:06:47;;;;;;;5.22;3.30;;;17.80;99.90;;;;;;4820636;29;20456;-88
2022/06/05 05:09:13;;;;;;;6.88;3.92;;;17.70;99.90;;;;;;4817225;29;20678;-88
2022/06/05 05:11:42;;;;;;;5.45;3.50;;;17.70;99.90;;;;;;4827586;24;20976;-90
2022/06/05 05:14:09;;;;;;;5.78;3.25;;;17.60;99.90;;;;;;4812135;29;20045;-92
2022/06/05 05:17:51;;;;;;;6.50;3.85;;;17.60;99.90;;;;;;4818530;29;20023;-92
2022/06/05 05:32:15;;;;;;;;;;;17.10;99.90;;;;;;4853121;29;20045;-92
2022/06/05 05:35:38;;;;;;;6.35;4.35;;;17.50;99.90;;;;;;4853604;29;20037;-93
2022/06/05 05:44:25;;;;;;;7.20;4.30;;;17.20;99.90;;;;;;4839592;29;20036;-86
2022/06/05 05:46:51;;;;;;;6.97;4.15;;;17.20;99.90;;;;;;4842148;29;20437;-87
2022/06/05 05:49:17;;;;;;;8.75;4.47;;;17.20;99.90;;;;;;4838805;29;20031;-86
2022/06/05 05:51:43;;;;;;;8.48;4.63;;;17.20;99.90;;;;;;4842046;29;20086;-86
2022/06/05 05:54:09;;;;;;;6.85;4.47;;;17.00;99.90;;;;;;4835508;29;20034;-86
2022/06/05 05:56:35;;;;;;;8.38;4.85;;;17.00;99.90;;;;;;4841922;29;20059;-86
2022/06/05 05:59:01;;;;;;;8.02;5.00;;;17.00;99.90;;;;;;4837478;29;20036;-86
2022/06/05 06:01:27;;;;;;;8.88;4.75;;;17.00;99.90;;;;;;4840777;29;20096;-86
2022/06/05 06:03:52;;;;;;;7.88;4.70;;;17.00;99.90;;;;;;4842045;29;20709;-86
2022/06/05 06:06:27;;;;;;;6.78;4.35;;;16.90;99.90;;;;;;4842628;29;20391;-86
2022/06/05 06:08:53;;;;;;;9.25;4.35;;;16.90;99.90;;;;;;4838524;29;20391;-86
2022/06/05 06:11:19;;;;;;;8.50;4.32;;;16.90;99.90;;;;;;4835325;29;20031;-87
2022/06/05 06:13:44;;;;;;;11.05;3.75;;;16.80;99.90;;;;;;4842311;29;20041;-86
2022/06/05 06:16:10;;;;;;;6.55;3.60;;;16.80;99.90;;;;;;4842654;29;20034;-86
2022/06/05 06:18:36;;;;;;;5.10;3.08;;;16.80;99.90;;;;;;4837078;29;20041;-86
2022/06/05 06:21:01;;;;;;;7.65;3.10;;;16.70;99.90;;;;;;4840831;29;20491;-87
2022/06/05 06:23:27;;;;;;;6.07;3.55;;;16.70;99.90;;;;;;4841505;29;20033;-87
2022/06/05 06:25:53;;;;;;;4.50;2.60;;;16.70;99.90;;;;;;4834834;29;20064;-87
2022/06/05 06:28:18;;;;;;;4.97;2.88;;;16.60;99.90;;;;;;4840124;29;20483;-85
2022/06/05 06:30:45;;;;;;;5.85;3.13;;;16.70;99.90;;;;;;4831336;29;20034;-86
2022/06/05 06:33:10;;;;;;;5.22;2.67;;;16.70;99.90;;;;;;4837568;29;20038;-85
2022/06/05 06:35:36;;;;;;;4.18;2.35;;;16.70;99.90;;;;;;4840544;29;20402;-86
2022/06/05 06:38:04;;;;;;;5.78;3.05;;;16.70;99.90;;;;;;4834047;29;20030;-85
2022/06/05 06:40:30;;;;;;;5.05;2.20;;;16.80;99.90;;;;;;4829435;29;20514;-86
2022/06/05 06:42:56;;;;;;;5.32;2.38;;;16.80;99.90;;;;;;4839819;29;20026;-87
2022/06/05 06:45:22;;;;;;;5.40;2.58;;;16.60;99.90;;;;;;4842219;29;20042;-85
2022/06/05 06:47:48;;;;;;;3.72;2.00;;;16.70;99.90;;;;;;4840626;29;20026;-87
2022/06/05 06:50:14;;;;;;;3.30;1.75;;;16.60;99.90;;;;;;4842261;29;20041;-86
2022/06/05 06:52:40;;;;;;;4.57;2.00;;;16.70;99.90;;;;;;4832667;29;20041;-86
2022/06/05 06:55:07;;;;;;;3.53;1.65;;;16.60;99.90;;;;;;4838509;29;20030;-86
2022/06/05 06:57:33;;;;;;;4.60;1.88;;;16.70;99.90;;;;;;4839320;29;20030;-85
2022/06/05 06:59:58;;;;;;;3.50;1.50;;;16.70;99.90;;;;;;4840747;29;20621;-85
2022/06/05 07:02:24;;;;;;;4.25;1.58;;;16.80;99.90;;;;;;4838984;29;20030;-86
2022/06/05 07:04:50;;;;;;;2.85;1.63;;;16.80;99.90;;;;;;4841603;29;20078;-86
2022/06/05 07:07:16;;;;;;;3.72;1.30;;;16.80;99.90;;;;;;4839961;29;20034;-86
2022/06/05 07:09:42;;;;;;;2.58;1.30;;;16.80;99.90;;;;;;4840749;29;20522;-86
2022/06/05 07:12:08;;;;;;;3.35;1.38;;;16.90;99.90;;;;;;4839799;29;20453;-86
2022/06/05 07:14:33;;;;;;;3.33;1.10;;;16.90;99.90;;;;;;4841379;29;20037;-85
2022/06/05 07:16:59;;;;;;;1.92;0.90;;;16.90;99.90;;;;;;4840945;29;20034;-86
2022/06/05 07:19:25;;;;;;;1.80;0.77;;;16.90;99.90;;;;;;4832387;29;20129;-86
2022/06/05 07:21:50;;;;;;;3.22;1.35;;;17.20;99.90;;;;;;4837780;29;20026;-86
2022/06/05 07:24:16;;;;;;;2.50;0.90;;;16.90;99.90;;;;;;4836041;29;20033;-87
2022/06/05 07:26:43;;;;;;;2.40;0.80;;;17.30;99.90;;;;;;4841199;29;20125;-87
2022/06/05 07:29:08;;;;;;;3.08;1.20;;;16.70;99.90;;;;;;4835718;29;20447;-88
2022/06/05 07:31:34;;;;;;;3.63;0.93;;;17.00;99.90;;;;;;4840234;29;20033;-88
2022/06/05 07:34:00;;;;;;;1.63;0.70;;;17.00;99.90;;;;;;4836949;29;20114;-87
2022/06/05 07:36:27;;;;;;;2.78;0.80;;;17.10;99.90;;;;;;4839694;29;20029;-87
2022/06/05 07:38:54;;;;;;;2.58;0.95;;;17.10;99.90;;;;;;4839154;29;20029;-87
2022/06/05 07:41:26;;;;;;;2.90;1.20;;;17.00;99.90;;;;;;4834510;29;20034;-88
2022/06/05 07:43:52;;;;;;;2.30;0.98;;;17.00;99.90;;;;;;4843127;29;20022;-88
2022/06/05 07:46:18;;;;;;;2.20;1.20;;;17.00;99.90;;;;;;4834993;29;20173;-88
2022/06/05 07:48:44;;;;;;;3.10;1.33;;;17.00;99.90;;;;;;4836486;29;20447;-88
2022/06/05 07:56:44;;;;;;;2.90;1.13;;;17.00;99.90;;;;;;4844319;29;20070;-86
2022/06/05 07:59:10;;;;;;;3.42;0.95;;;17.10;99.90;;;;;;4838977;29;20034;-88
2022/06/05 08:01:36;;;;;;;2.20;1.05;;;17.10;99.90;;;;;;4840646;29;20282;-87
2022/06/05 08:04:03;;;;;;;2.20;0.88;;;17.10;99.90;;;;;;4833482;29;20026;-87
2022/06/05 08:06:29;;;;;;;3.00;1.00;;;17.10;99.90;;;;;;4834675;29;20037;-85
2022/06/05 08:08:55;;;;;;;2.05;0.90;;;17.10;99.90;;;;;;4837070;29;20018;-87
2022/06/05 08:11:20;;;;;;;3.00;1.15;;;17.20;99.90;;;;;;4836013;29;20042;-88
2022/06/05 08:13:46;;;;;;;4.20;1.10;;;17.30;99.90;;;;;;4838602;29;20030;-87
2022/06/05 08:16:12;;;;;;;2.63;1.08;;;17.40;99.90;;;;;;4831345;29;20030;-88
2022/06/05 08:18:38;;;;;;;2.83;1.10;;;17.40;99.90;;;;;;4839089;29;20034;-88
2022/06/05 08:21:04;;;;;;;3.38;0.98;;;17.50;99.90;;;;;;4835073;29;20049;-88
2022/06/05 08:23:30;;;;;;;3.05;0.73;;;17.60;99.90;;;;;;4834280;29;20027;-88
2022/06/05 08:25:56;;;;;;;2.17;0.75;;;17.70;99.90;;;;;;4833821;29;20026;-87
2022/06/05 08:28:25;;;;;;;1.27;0.70;;;17.90;99.90;;;;;;4837990;29;20038;-86
2022/06/05 08:30:51;;;;;;;1.88;0.68;;;18.00;99.90;;;;;;4838425;29;20060;-89
2022/06/05 08:33:17;;;;;;;1.80;0.80;;;18.20;99.90;;;;;;4838060;29;20040;-86
2022/06/05 08:35:46;;;;;;;1.38;0.50;;;18.40;99.90;;;;;;4833901;29;20030;-88
2022/06/05 08:41:28;;;;;;;2.08;0.60;;;18.50;99.90;;;;;;4834649;29;20037;-88
2022/06/05 08:44:24;;;;;;;1.30;0.60;;;18.60;99.90;;;;;;4832133;29;20033;-88
2022/06/05 08:46:56;;;;;;;2.28;0.63;;;18.70;99.90;;;;;;4831395;29;20484;-87
2022/06/05 08:49:28;;;;;;;;;;;18.90;99.90;;;;;;4840362;29;20499;-87
2022/06/05 08:52:14;;;;;;;1.70;0.60;;;19.00;99.90;;;;;;4833753;29;19919;-88
2022/06/05 08:55:01;;;;;;;2.45;0.50;;;19.20;99.90;;;;;;4835715;29;20042;-87
2022/06/05 08:57:39;;;;;;;2.38;1.20;;;19.50;99.90;;;;;;4840436;29;20491;-88
2022/06/05 09:00:13;;;;;;;3.00;0.65;;;19.60;99.90;;;;;;4839570;29;20053;-88
2022/06/05 09:03:06;;;;;;;0.77;0.38;;;19.60;99.90;;;;;;4832214;29;20026;-88
2022/06/05 09:05:38;;;;;;;1.23;0.50;;;19.80;99.90;;;;;;4837591;29;20038;-87
2022/06/05 09:08:16;;;;;;;1.58;0.50;;;20.00;99.90;;;;;;4838694;29;20445;-88
2022/06/05 09:11:06;;;;;;;1.88;0.43;;;20.10;99.90;;;;;;4837393;29;20030;-88
2022/06/05 09:13:42;;;;;;;1.15;0.50;;;20.20;99.90;;;;;;4838578;29;20030;-87
2022/06/05 09:16:13;;;;;;;1.38;0.63;;;20.30;99.90;;;;;;4834554;29;20046;-88
2022/06/05 09:18:48;;;;;;;;;;;20.50;99.90;;;;;;4835757;29;20026;-87
2022/06/05 09:21:19;;;;;;;1.45;0.40;;;20.60;99.90;;;;;;4833448;29;19913;-88
2022/06/05 09:24:07;;;;;;;1.25;0.40;;;20.70;99.90;;;;;;4837707;29;20058;-86
2022/06/05 09:27:02;;;;;;;3.15;0.60;;;20.70;99.90;;;;;;4837316;29;20026;-86
2022/06/05 09:29:44;;;;;;;0.75;0.30;;;20.80;99.90;;;;;;4835861;29;20125;-88
2022/06/05 09:32:43;;;;;;;1.73;0.60;;;20.90;99.90;;;;;;4838212;29;20037;-88
2022/06/05 09:35:12;;;;;;;0.90;0.30;;;20.80;99.90;;;;;;4837795;29;20034;-87
2022/06/05 09:37:40;;;;;;;1.33;0.30;;;20.90;99.90;;;;;;4837806;29;20045;-87
2022/06/05 09:40:17;;;;;;;1.05;0.30;;;21.00;99.90;;;;;;4838095;29;20053;-88
2022/06/05 09:43:02;;;;;;;0.73;0.20;;;21.40;99.90;;;;;;4839600;29;20503;-87
2022/06/05 09:45:47;;;;;;;0.70;0.28;;;21.20;99.90;;;;;;4837492;29;20037;-87
2022/06/05 09:48:38;;;;;;;1.77;0.60;;;21.00;99.90;;;;;;4838697;29;20033;-88
2022/06/05 09:51:10;;;;;;;0.85;0.20;;;21.00;99.90;;;;;;4836101;29;20026;-87
2022/06/05 09:53:48;;;;;;;3.30;0.60;;;20.90;99.90;;;;;;4832991;29;20098;-87
2022/06/05 09:56:28;;;;;;;0.90;0.30;;;21.10;99.90;;;;;;4837420;29;20062;-88
2022/06/05 09:59:17;;;;;;;2.03;0.30;;;21.20;99.90;;;;;;4834288;29;20026;-88
2022/06/05 10:01:54;;;;;;;0.65;0.20;;;21.50;99.90;;;;;;4835707;29;20042;-87
2022/06/05 10:04:22;;;;;;;1.13;0.40;;;21.70;99.90;;;;;;4838544;29;20508;-88
2022/06/05 10:06:54;;;;;;;0.95;0.30;;;21.80;99.90;;;;;;4841508;29;20026;-87
2022/06/05 10:09:24;;;;;;;0.88;0.20;;;21.80;99.90;;;;;;4847051;29;20044;-87
2022/06/05 10:11:59;;;;;;;0.55;0.22;;;21.90;99.90;;;;;;4838386;29;20036;-88
2022/06/05 10:14:50;;;;;;;1.88;0.32;;;21.90;99.90;;;;;;4825412;29;20062;-88
2022/06/05 10:17:28;;;;;;;1.02;0.40;;;22.00;99.90;;;;;;4831975;29;20226;-87
2022/06/05 10:20:36;;;;;;;1.27;0.65;;;21.80;99.90;;;;;;4853246;29;20030;-87
2022/06/05 10:23:18;;;;;;;0.75;0.25;;;21.70;99.90;;;;;;4830744;29;20026;-87
2022/06/05 10:26:00;;;;;;;1.08;0.40;;;21.70;99.90;;;;;;4833438;29;20054;-86
2022/06/05 10:28:30;;;;;;;1.92;0.30;;;21.50;99.90;;;;;;4837819;29;20121;-87
2022/06/05 10:31:27;;;;;;;1.05;0.40;;;21.40;99.90;;;;;;4839460;29;20025;-87
2022/06/05 10:34:15;;;;;;;1.23;0.47;;;21.20;99.90;;;;;;4832929;29;20046;-86
2022/06/05 10:36:51;;;;;;;2.22;0.68;;;21.10;99.90;;;;;;4839722;29;20021;-86
2022/06/05 10:39:23;;;;;;;2.22;0.50;;;21.00;99.90;;;;;;4837483;29;20065;-86
2022/06/05 10:42:12;;;;;;;1.00;0.50;;;20.90;99.90;;;;;;4834168;29;20523;-87
2022/06/05 10:44:52;;;;;;;2.33;0.98;;;20.70;99.90;;;;;;4838021;29;20495;-86
2022/06/05 10:47:38;;;;;;;2.03;0.90;;;20.50;99.90;;;;;;4837082;29;20041;-86
2022/06/05 10:50:28;;;;;;;4.15;1.15;;;20.30;99.90;;;;;;4836029;29;20046;-86
2022/06/05 10:53:23;;;;;;;2.83;1.38;;;20.10;99.90;;;;;;4831308;29;20044;-86
2022/06/05 10:56:22;;;;;;;2.33;1.10;;;19.80;99.90;;;;;;4840482;29;20034;-86
2022/06/05 10:58:57;;;;;;;2.42;1.13;;;19.60;99.90;;;;;;4840737;29;20030;-87
2022/06/05 11:01:47;;;;;;;2.35;1.13;;;19.50;99.90;;;;;;4833913;29;20040;-85
2022/06/05 11:04:21;;;;;;;4.18;1.25;;;19.30;99.90;;;;;;4841560;29;20026;-86
2022/06/05 11:07:29;;;;;;;2.45;1.33;;;19.20;99.90;;;;;;4837775;29;20022;-87
2022/06/05 11:09:57;;;;;;;2.70;1.05;;;19.20;99.90;;;;;;4834964;29;20046;-87
2022/06/05 11:15:53;;;;;;;3.08;1.30;;;19.10;99.90;;;;;;4841231;29;20105;-86
2022/06/05 11:18:22;;;;;;;2.85;1.30;;;19.00;99.90;;;;;;4835964;29;20041;-86
2022/06/05 11:20:55;;;;;;;2.00;0.93;;;19.00;99.90;;;;;;4832016;29;20072;-87
2022/06/05 11:23:25;;;;;;;3.47;1.25;;;18.90;99.90;;;;;;4835004;29;20030;-88
2022/06/05 11:26:16;;;;;;;2.67;1.00;;;18.80;99.90;;;;;;4835515;29;20026;-87
2022/06/05 11:29:05;;;;;;;3.67;1.40;;;18.80;99.90;;;;;;4835469;29;20086;-87
2022/06/05 11:31:36;;;;;;;2.28;1.00;;;18.70;99.90;;;;;;4837947;29;20049;-86
2022/06/05 11:34:41;;;;;;;2.20;1.03;;;18.60;99.90;;;;;;4841632;29;20060;-87
2022/06/05 11:37:13;;;;;;;1.83;0.90;;;18.70;99.90;;;;;;4832775;29;20335;-88
2022/06/05 11:39:48;;;;;;;3.10;1.00;;;18.80;99.90;;;;;;4838931;29;20037;-87
2022/06/05 11:42:59;;;;;;;2.92;1.15;;;18.90;99.90;;;;;;5030703;24;20263;-90
2022/06/05 11:45:54;;;;;;;2.30;1.10;;;19.10;99.90;;;;;;4852640;29;20025;-90
2022/06/05 11:52:09;;;;;;;2.95;1.35;;;20.20;99.90;;;;;;4836818;29;20034;-90
2022/06/05 11:55:13;;;;;;;;;;;;;;;;;;;;;
2022/06/05 15:05:58;;;;;;;1.85;0.63;;;21.30;99.90;;;;;;4238925;23;20054;-89
2022/06/05 15:08:37;;;;;;;2.25;0.73;;;21.40;99.90;;;;;;4858267;29;20457;-89
2022/06/05 15:11:05;;;;;;;2.65;0.70;;;21.50;99.90;;;;;;4856550;29;20039;-91
2022/06/05 15:13:45;;;;;;;4.50;0.70;;;21.50;99.90;;;;;;4855530;29;20033;-90
2022/06/05 15:58:29;;;;;;;1.27;0.65;;;20.00;99.90;;;;;;4842905;29;20042;-92
2022/06/05 16:04:27;;;;;;;2.13;0.35;;;19.10;99.90;;;;;;4860781;29;20463;-93
2022/06/05 16:07:06;;;;;;;1.98;0.57;;;19.30;99.90;;;;;;4844483;29;20495;-92
2022/06/05 16:09:55;;;;;;;1.70;0.40;;;19.30;99.90;;;;;;4846833;29;20121;-91
2022/06/05 16:12:56;;;;;;;0.75;0.30;;;19.30;99.90;;;;;;4855513;29;20057;-91
2022/06/05 16:16:13;;;;;;;2.50;0.40;;;19.20;99.90;;;;;;4852754;29;20034;-93
2022/06/05 16:18:57;;;;;;;2.65;0.50;;;19.00;99.90;;;;;;4854532;29;20041;-92
2022/06/05 16:22:02;;;;;;;1.27;0.60;;;19.40;99.90;;;;;;4858483;29;20045;-92
2022/06/05 16:24:54;;;;;;;1.40;0.40;;;19.50;99.90;;;;;;4841124;29;20065;-92
2022/06/05 16:27:45;;;;;;;3.58;0.50;;;19.70;99.90;;;;;;4850863;29;20025;-92
2022/06/05 16:30:34;;;;;;;2.78;0.60;;;19.90;99.90;;;;;;4857870;29;20175;-92
2022/06/05 16:33:22;;;;;;;0.88;0.30;;;20.10;99.90;;;;;;4855147;29;20064;-92
2022/06/05 16:39:05;;;;;;;1.35;0.40;;;20.10;99.90;;;;;;4838370;29;20412;-91
2022/06/05 16:41:43;;;;;;;;;;;20.40;99.90;;;;;;4850683;29;20037;-92
2022/06/05 16:44:27;;;;;;;1.77;0.82;;;20.50;99.90;;;;;;4860560;29;19917;-91
2022/06/05 16:46:55;;;;;;;0.85;0.40;;;20.30;99.90;;;;;;4841432;29;20028;-92
2022/06/05 16:49:38;;;;;;;2.33;0.60;;;20.40;99.90;;;;;;4839771;29;20040;-92
2022/06/05 16:52:04;;;;;;;0.95;0.32;;;20.50;99.90;;;;;;4840645;29;20057;-92
2022/06/05 16:54:39;;;;;;;1.63;0.55;;;20.50;99.90;;;;;;4843007;29;20034;-92
2022/06/05 16:57:15;;;;;;;2.88;0.50;;;20.50;99.90;;;;;;4831934;29;20091;-91
2022/06/05 17:00:19;;;;;;;0.60;0.30;;;20.40;99.90;;;;;;4828511;29;20489;-92
2022/06/05 17:02:54;;;;;;;0.75;0.30;;;20.40;99.90;;;;;;4831643;29;20038;-92
2022/06/05 17:05:26;;;;;;;1.65;0.50;;;20.40;99.90;;;;;;4842271;29;20037;-92
2022/06/05 17:07:59;;;;;;;1.42;0.30;;;20.30;99.90;;;;;;4841548;29;20051;-89
2022/06/05 17:10:25;;;;;;;1.40;0.40;;;20.20;99.90;;;;;;4841474;29;20129;-92
2022/06/05 17:13:22;;;;;;;1.08;0.30;;;20.10;99.90;;;;;;4835880;29;20064;-92
2022/06/05 17:15:57;;;;;;;2.92;0.50;;;20.20;99.90;;;;;;4835151;29;20030;-92
2022/06/05 17:18:48;;;;;;;2.17;0.82;;;20.10;99.90;;;;;;4839513;29;20507;-91
2022/06/05 17:21:43;;;;;;;4.30;0.50;;;19.90;99.90;;;;;;4837752;29;20030;-92
2022/06/05 17:25:18;;;;;;;1.02;0.45;;;20.00;99.90;;;;;;4836510;29;20030;-91
2022/06/05 17:28:07;;;;;;;0.70;0.30;;;20.00;99.90;;;;;;4850928;29;20129;-92
2022/06/05 17:31:02;;;;;;;1.58;0.43;;;20.00;99.90;;;;;;4842272;29;20049;-92
2022/06/05 17:33:45;;;;;;;1.05;0.40;;;20.10;99.90;;;;;;4839997;29;20487;-91
2022/06/05 17:36:37;;;;;;;1.60;0.50;;;20.10;99.90;;;;;;4841280;29;20057;-92
2022/06/05 17:39:38;;;;;;;0.70;0.30;;;20.20;99.90;;;;;;4840119;29;20125;-91
2022/06/05 17:42:16;;;;;;;1.10;0.40;;;20.30;99.90;;;;;;4842713;29;20117;-91
2022/06/05 17:44:59;;;;;;;1.13;0.40;;;20.60;99.90;;;;;;4871010;24;20046;-87
2022/06/05 17:47:57;;;;;;;1.63;0.40;;;20.60;99.90;;;;;;4838583;29;20089;-87
2022/06/05 17:50:35;;;;;;;1.40;0.30;;;20.70;99.90;;;;;;4840833;29;20034;-87
2022/06/05 17:53:04;;;;;;;0.88;0.20;;;20.70;99.90;;;;;;4837951;29;20094;-87
2022/06/05 17:55:33;;;;;;;1.63;0.30;;;20.60;99.90;;;;;;4820513;29;20042;-87
2022/06/05 17:58:15;;;;;;;3.30;0.20;;;20.60;99.90;;;;;;4820987;29;20030;-87
2022/06/05 18:00:56;;;;;;;0.55;0.20;;;20.50;99.90;;;;;;4815884;29;20045;-86
2022/06/05 18:03:25;;;;;;;0.80;0.30;;;20.50;99.90;;;;;;4834790;29;20034;-86
2022/06/05 18:06:03;;;;;;;1.15;0.30;;;20.40;99.90;;;;;;4825262;29;20038;-87
2022/06/05 18:08:32;;;;;;;2.35;0.60;;;20.10;99.90;;;;;;4819042;29;20023;-87